sensor_id;sensor_type;location;lat;lon;timestamp;P1;durP1;ratioP1;P2;durP2;ratioP2
17965;SDS011;9108;53.204;10.424;2023-02-01T00:00:40;34.42;;;4.28;;
17965;SDS011;9108;53.204;10.424;2023-02-01T00:03:07;34.60;;;4.43;;
17965;SDS011;9108;53.204;10.424;2023-02-01T00:05:34;27.70;;;3.78;;
17965;SDS011;9108;53.204;10.424;2023-02-01T00:08:02;31.10;;;4.13;;
17965;SDS011;9108;53.204;10.424;2023-02-01T00:10:29;32.40;;;4.07;;
17965;SDS011;9108;53.204;10.424;2023-02-01T00:12:59;28.58;;;4.05;;
17965;SDS011;9108;53.204;10.424;2023-02-01T00:15:33;34.10;;;4.43;;
17965;SDS011;9108;53.204;10.424;2023-02-01T00:18:01;30.00;;;4.65;;
17965;SDS011;9108;53.204;10.424;2023-02-01T00:20:28;35.17;;;4.38;;
17965;SDS011;9108;53.204;10.424;2023-02-01T00:22:55;31.77;;;4.15;;
17965;SDS011;9108;53.204;10.424;2023-02-01T00:25:22;35.67;;;4.45;;
17965;SDS011;9108;53.204;10.424;2023-02-01T00:27:50;32.70;;;4.32;;
17965;SDS011;9108;53.204;10.424;2023-02-01T00:30:17;41.00;;;5.32;;
17965;SDS011;9108;53.204;10.424;2023-02-01T00:32:46;35.92;;;4.50;;
17965;SDS011;9108;53.204;10.424;2023-02-01T00:35:13;41.80;;;4.75;;
17965;SDS011;9108;53.204;10.424;2023-02-01T00:37:40;35.35;;;4.90;;
17965;SDS011;9108;53.204;10.424;2023-02-01T00:40:08;37.08;;;4.18;;
17965;SDS011;9108;53.204;10.424;2023-02-01T00:42:35;36.13;;;4.28;;
17965;SDS011;9108;53.204;10.424;2023-02-01T00:45:03;37.38;;;4.60;;
17965;SDS011;9108;53.204;10.424;2023-02-01T00:47:30;34.28;;;4.50;;
17965;SDS011;9108;53.204;10.424;2023-02-01T00:49:59;32.88;;;4.13;;
17965;SDS011;9108;53.204;10.424;2023-02-01T00:52:26;37.17;;;4.68;;
17965;SDS011;9108;53.204;10.424;2023-02-01T00:54:54;39.95;;;4.53;;
17965;SDS011;9108;53.204;10.424;2023-02-01T00:57:21;36.17;;;4.30;;
17965;SDS011;9108;53.204;10.424;2023-02-01T00:59:55;36.45;;;4.72;;
17965;SDS011;9108;53.204;10.424;2023-02-01T01:02:34;33.38;;;4.75;;
17965;SDS011;9108;53.204;10.424;2023-02-01T01:05:03;37.47;;;4.55;;
17965;SDS011;9108;53.204;10.424;2023-02-01T01:07:31;35.45;;;4.82;;
17965;SDS011;9108;53.204;10.424;2023-02-01T01:09:58;32.53;;;4.38;;
17965;SDS011;9108;53.204;10.424;2023-02-01T01:12:25;33.20;;;4.40;;
17965;SDS011;9108;53.204;10.424;2023-02-01T01:14:52;41.70;;;4.95;;
17965;SDS011;9108;53.204;10.424;2023-02-01T01:17:20;35.60;;;4.60;;
17965;SDS011;9108;53.204;10.424;2023-02-01T01:19:47;37.33;;;4.80;;
17965;SDS011;9108;53.204;10.424;2023-02-01T01:22:15;33.95;;;4.40;;
17965;SDS011;9108;53.204;10.424;2023-02-01T01:24:43;32.83;;;4.45;;
17965;SDS011;9108;53.204;10.424;2023-02-01T01:27:10;36.03;;;5.07;;
17965;SDS011;9108;53.204;10.424;2023-02-01T01:29:37;43.20;;;5.22;;
17965;SDS011;9108;53.204;10.424;2023-02-01T01:32:04;37.13;;;4.40;;
17965;SDS011;9108;53.204;10.424;2023-02-01T01:34:32;39.03;;;5.07;;
17965;SDS011;9108;53.204;10.424;2023-02-01T01:36:59;36.92;;;4.60;;
17965;SDS011;9108;53.204;10.424;2023-02-01T01:39:28;40.92;;;5.30;;
17965;SDS011;9108;53.204;10.424;2023-02-01T01:41:55;39.53;;;5.05;;
17965;SDS011;9108;53.204;10.424;2023-02-01T01:47:08;43.85;;;5.03;;
17965;SDS011;9108;53.204;10.424;2023-02-01T01:49:35;36.10;;;5.00;;
17965;SDS011;9108;53.204;10.424;2023-02-01T01:52:03;41.10;;;4.93;;
17965;SDS011;9108;53.204;10.424;2023-02-01T01:54:32;40.22;;;5.43;;
17965;SDS011;9108;53.204;10.424;2023-02-01T01:57:00;40.78;;;5.30;;
17965;SDS011;9108;53.204;10.424;2023-02-01T01:59:28;39.70;;;5.65;;
17965;SDS011;9108;53.204;10.424;2023-02-01T02:01:58;45.60;;;5.50;;
17965;SDS011;9108;53.204;10.424;2023-02-01T02:04:25;33.47;;;5.10;;
17965;SDS011;9108;53.204;10.424;2023-02-01T02:06:54;40.72;;;5.45;;
17965;SDS011;9108;53.204;10.424;2023-02-01T02:09:21;46.22;;;5.38;;
17965;SDS011;9108;53.204;10.424;2023-02-01T02:11:50;44.88;;;5.40;;
17965;SDS011;9108;53.204;10.424;2023-02-01T02:14:18;45.83;;;5.43;;
17965;SDS011;9108;53.204;10.424;2023-02-01T02:16:49;41.00;;;4.72;;
17965;SDS011;9108;53.204;10.424;2023-02-01T02:22:07;36.35;;;4.82;;
17965;SDS011;9108;53.204;10.424;2023-02-01T02:27:24;47.47;;;5.70;;
17965;SDS011;9108;53.204;10.424;2023-02-01T02:30:06;42.67;;;5.07;;
17965;SDS011;9108;53.204;10.424;2023-02-01T02:35:28;39.17;;;4.93;;
17965;SDS011;9108;53.204;10.424;2023-02-01T02:37:59;40.33;;;5.22;;
17965;SDS011;9108;53.204;10.424;2023-02-01T02:40:31;40.40;;;5.38;;
17965;SDS011;9108;53.204;10.424;2023-02-01T02:43:02;39.53;;;5.78;;
17965;SDS011;9108;53.204;10.424;2023-02-01T02:45:51;40.50;;;5.30;;
17965;SDS011;9108;53.204;10.424;2023-02-01T02:48:42;49.75;;;5.63;;
17965;SDS011;9108;53.204;10.424;2023-02-01T02:51:13;43.53;;;5.35;;
17965;SDS011;9108;53.204;10.424;2023-02-01T02:54:00;50.42;;;5.70;;
17965;SDS011;9108;53.204;10.424;2023-02-01T02:56:46;38.78;;;5.03;;
17965;SDS011;9108;53.204;10.424;2023-02-01T02:59:31;45.35;;;5.43;;
17965;SDS011;9108;53.204;10.424;2023-02-01T03:02:17;41.28;;;5.43;;
17965;SDS011;9108;53.204;10.424;2023-02-01T03:05:03;41.88;;;5.55;;
17965;SDS011;9108;53.204;10.424;2023-02-01T03:07:49;46.03;;;5.45;;
17965;SDS011;9108;53.204;10.424;2023-02-01T03:10:21;43.72;;;4.88;;
17965;SDS011;9108;53.204;10.424;2023-02-01T03:12:50;39.28;;;5.18;;
17965;SDS011;9108;53.204;10.424;2023-02-01T03:15:21;43.45;;;5.22;;
17965;SDS011;9108;53.204;10.424;2023-02-01T03:17:51;42.87;;;5.03;;
17965;SDS011;9108;53.204;10.424;2023-02-01T03:20:18;42.95;;;5.45;;
17965;SDS011;9108;53.204;10.424;2023-02-01T03:22:48;36.08;;;5.13;;
17965;SDS011;9108;53.204;10.424;2023-02-01T03:25:18;42.85;;;5.25;;
17965;SDS011;9108;53.204;10.424;2023-02-01T03:27:48;34.47;;;4.45;;
17965;SDS011;9108;53.204;10.424;2023-02-01T03:30:19;29.75;;;4.68;;
17965;SDS011;9108;53.204;10.424;2023-02-01T03:32:48;37.05;;;5.10;;
17965;SDS011;9108;53.204;10.424;2023-02-01T03:35:27;41.35;;;5.10;;
17965;SDS011;9108;53.204;10.424;2023-02-01T03:38:02;39.53;;;5.00;;
17965;SDS011;9108;53.204;10.424;2023-02-01T03:40:31;37.28;;;4.70;;
17965;SDS011;9108;53.204;10.424;2023-02-01T03:42:59;39.35;;;4.82;;
17965;SDS011;9108;53.204;10.424;2023-02-01T03:45:31;30.33;;;4.40;;
17965;SDS011;9108;53.204;10.424;2023-02-01T03:48:01;38.75;;;5.05;;
17965;SDS011;9108;53.204;10.424;2023-02-01T03:50:29;37.28;;;4.90;;
17965;SDS011;9108;53.204;10.424;2023-02-01T03:53:00;41.40;;;5.03;;
17965;SDS011;9108;53.204;10.424;2023-02-01T03:55:28;42.63;;;5.03;;
17965;SDS011;9108;53.204;10.424;2023-02-01T03:57:57;35.50;;;4.22;;
17965;SDS011;9108;53.204;10.424;2023-02-01T04:00:26;34.85;;;4.00;;
17965;SDS011;9108;53.204;10.424;2023-02-01T04:02:53;35.65;;;4.20;;
17965;SDS011;9108;53.204;10.424;2023-02-01T04:05:21;24.95;;;3.67;;
17965;SDS011;9108;53.204;10.424;2023-02-01T04:07:48;20.48;;;3.00;;
17965;SDS011;9108;53.204;10.424;2023-02-01T04:10:17;19.50;;;2.78;;
17965;SDS011;9108;53.204;10.424;2023-02-01T04:12:44;23.48;;;2.67;;
17965;SDS011;9108;53.204;10.424;2023-02-01T04:15:11;17.83;;;2.45;;
17965;SDS011;9108;53.204;10.424;2023-02-01T04:17:38;12.07;;;1.75;;
17965;SDS011;9108;53.204;10.424;2023-02-01T04:20:06;12.30;;;1.77;;
17965;SDS011;9108;53.204;10.424;2023-02-01T04:22:34;8.98;;;1.38;;
17965;SDS011;9108;53.204;10.424;2023-02-01T04:25:01;10.48;;;1.50;;
17965;SDS011;9108;53.204;10.424;2023-02-01T04:27:32;7.47;;;1.15;;
17965;SDS011;9108;53.204;10.424;2023-02-01T04:29:59;10.00;;;1.10;;
17965;SDS011;9108;53.204;10.424;2023-02-01T04:32:26;7.40;;;1.40;;
17965;SDS011;9108;53.204;10.424;2023-02-01T04:34:53;9.65;;;1.00;;
17965;SDS011;9108;53.204;10.424;2023-02-01T04:37:20;5.63;;;1.10;;
17965;SDS011;9108;53.204;10.424;2023-02-01T04:39:47;6.97;;;0.90;;
17965;SDS011;9108;53.204;10.424;2023-02-01T04:42:15;6.13;;;1.10;;
17965;SDS011;9108;53.204;10.424;2023-02-01T04:44:43;5.88;;;1.02;;
17965;SDS011;9108;53.204;10.424;2023-02-01T04:47:10;9.40;;;1.85;;
17965;SDS011;9108;53.204;10.424;2023-02-01T04:49:38;11.52;;;1.70;;
17965;SDS011;9108;53.204;10.424;2023-02-01T04:52:05;14.23;;;2.00;;
17965;SDS011;9108;53.204;10.424;2023-02-01T04:54:32;15.82;;;2.05;;
17965;SDS011;9108;53.204;10.424;2023-02-01T04:56:59;15.90;;;2.17;;
17965;SDS011;9108;53.204;10.424;2023-02-01T04:59:26;14.63;;;2.40;;
17965;SDS011;9108;53.204;10.424;2023-02-01T05:01:55;12.85;;;2.15;;
17965;SDS011;9108;53.204;10.424;2023-02-01T05:04:22;13.77;;;2.33;;
17965;SDS011;9108;53.204;10.424;2023-02-01T05:06:50;12.93;;;1.90;;
17965;SDS011;9108;53.204;10.424;2023-02-01T05:09:17;15.55;;;2.30;;
17965;SDS011;9108;53.204;10.424;2023-02-01T05:11:46;15.20;;;2.10;;
17965;SDS011;9108;53.204;10.424;2023-02-01T05:14:31;12.00;;;1.70;;
17965;SDS011;9108;53.204;10.424;2023-02-01T05:16:59;11.57;;;1.95;;
17965;SDS011;9108;53.204;10.424;2023-02-01T05:19:26;10.20;;;1.38;;
17965;SDS011;9108;53.204;10.424;2023-02-01T05:21:54;11.95;;;1.70;;
17965;SDS011;9108;53.204;10.424;2023-02-01T05:24:21;7.78;;;1.40;;
17965;SDS011;9108;53.204;10.424;2023-02-01T05:26:48;7.53;;;1.30;;
17965;SDS011;9108;53.204;10.424;2023-02-01T05:29:16;9.57;;;1.40;;
17965;SDS011;9108;53.204;10.424;2023-02-01T05:31:44;7.22;;;1.20;;
17965;SDS011;9108;53.204;10.424;2023-02-01T05:34:12;7.13;;;1.30;;
17965;SDS011;9108;53.204;10.424;2023-02-01T05:36:40;8.00;;;1.38;;
17965;SDS011;9108;53.204;10.424;2023-02-01T05:39:07;10.90;;;2.10;;
17965;SDS011;9108;53.204;10.424;2023-02-01T05:41:35;7.60;;;1.30;;
17965;SDS011;9108;53.204;10.424;2023-02-01T05:44:02;8.45;;;2.30;;
17965;SDS011;9108;53.204;10.424;2023-02-01T05:46:30;9.68;;;2.20;;
17965;SDS011;9108;53.204;10.424;2023-02-01T05:48:57;9.27;;;2.10;;
17965;SDS011;9108;53.204;10.424;2023-02-01T05:51:26;12.18;;;1.83;;
17965;SDS011;9108;53.204;10.424;2023-02-01T05:53:53;8.77;;;1.70;;
17965;SDS011;9108;53.204;10.424;2023-02-01T05:56:21;9.07;;;1.77;;
17965;SDS011;9108;53.204;10.424;2023-02-01T05:58:48;6.90;;;1.67;;
17965;SDS011;9108;53.204;10.424;2023-02-01T06:01:15;10.00;;;2.20;;
17965;SDS011;9108;53.204;10.424;2023-02-01T06:03:42;8.65;;;2.00;;
17965;SDS011;9108;53.204;10.424;2023-02-01T06:06:10;6.97;;;1.30;;
17965;SDS011;9108;53.204;10.424;2023-02-01T06:08:38;6.10;;;1.10;;
17965;SDS011;9108;53.204;10.424;2023-02-01T06:11:06;4.97;;;0.80;;
17965;SDS011;9108;53.204;10.424;2023-02-01T06:13:33;4.43;;;0.80;;
17965;SDS011;9108;53.204;10.424;2023-02-01T06:16:06;3.22;;;0.70;;
17965;SDS011;9108;53.204;10.424;2023-02-01T06:18:40;2.10;;;0.63;;
17965;SDS011;9108;53.204;10.424;2023-02-01T06:21:07;2.77;;;0.70;;
17965;SDS011;9108;53.204;10.424;2023-02-01T06:23:34;4.00;;;0.90;;
17965;SDS011;9108;53.204;10.424;2023-02-01T06:26:03;5.25;;;0.70;;
17965;SDS011;9108;53.204;10.424;2023-02-01T06:28:31;3.97;;;0.90;;
17965;SDS011;9108;53.204;10.424;2023-02-01T06:31:02;3.95;;;0.90;;
17965;SDS011;9108;53.204;10.424;2023-02-01T06:33:31;2.97;;;0.80;;
17965;SDS011;9108;53.204;10.424;2023-02-01T06:35:58;2.83;;;0.80;;
17965;SDS011;9108;53.204;10.424;2023-02-01T06:38:26;5.15;;;1.00;;
17965;SDS011;9108;53.204;10.424;2023-02-01T06:40:54;2.95;;;0.80;;
17965;SDS011;9108;53.204;10.424;2023-02-01T06:43:23;4.32;;;1.10;;
17965;SDS011;9108;53.204;10.424;2023-02-01T06:46:07;3.22;;;0.98;;
17965;SDS011;9108;53.204;10.424;2023-02-01T06:48:36;4.95;;;0.80;;
17965;SDS011;9108;53.204;10.424;2023-02-01T06:51:03;4.85;;;0.80;;
17965;SDS011;9108;53.204;10.424;2023-02-01T06:53:30;3.60;;;0.70;;
17965;SDS011;9108;53.204;10.424;2023-02-01T06:55:58;3.80;;;0.87;;
17965;SDS011;9108;53.204;10.424;2023-02-01T06:58:29;4.57;;;0.80;;
17965;SDS011;9108;53.204;10.424;2023-02-01T07:00:56;4.38;;;0.80;;
17965;SDS011;9108;53.204;10.424;2023-02-01T07:03:24;3.75;;;0.77;;
17965;SDS011;9108;53.204;10.424;2023-02-01T07:05:54;4.28;;;1.10;;
17965;SDS011;9108;53.204;10.424;2023-02-01T07:08:21;7.18;;;1.48;;
17965;SDS011;9108;53.204;10.424;2023-02-01T07:10:48;7.30;;;1.55;;
17965;SDS011;9108;53.204;10.424;2023-02-01T07:13:16;5.03;;;1.20;;
17965;SDS011;9108;53.204;10.424;2023-02-01T07:15:44;6.60;;;1.30;;
17965;SDS011;9108;53.204;10.424;2023-02-01T07:18:13;4.63;;;0.90;;
17965;SDS011;9108;53.204;10.424;2023-02-01T07:20:40;4.95;;;0.80;;
17965;SDS011;9108;53.204;10.424;2023-02-01T07:23:07;4.35;;;1.00;;
17965;SDS011;9108;53.204;10.424;2023-02-01T07:25:35;5.35;;;0.90;;
17965;SDS011;9108;53.204;10.424;2023-02-01T07:28:02;4.07;;;1.00;;
17965;SDS011;9108;53.204;10.424;2023-02-01T07:30:29;6.10;;;1.00;;
17965;SDS011;9108;53.204;10.424;2023-02-01T07:32:58;6.18;;;1.08;;
17965;SDS011;9108;53.204;10.424;2023-02-01T07:35:26;9.33;;;1.53;;
17965;SDS011;9108;53.204;10.424;2023-02-01T07:37:53;8.90;;;1.23;;
17965;SDS011;9108;53.204;10.424;2023-02-01T07:40:20;11.20;;;1.60;;
17965;SDS011;9108;53.204;10.424;2023-02-01T07:42:56;13.02;;;1.90;;
17965;SDS011;9108;53.204;10.424;2023-02-01T07:45:23;18.38;;;2.47;;
17965;SDS011;9108;53.204;10.424;2023-02-01T07:47:51;17.52;;;2.30;;
17965;SDS011;9108;53.204;10.424;2023-02-01T07:50:20;17.80;;;2.50;;
17965;SDS011;9108;53.204;10.424;2023-02-01T07:52:47;14.85;;;2.40;;
17965;SDS011;9108;53.204;10.424;2023-02-01T07:55:14;19.23;;;2.75;;
17965;SDS011;9108;53.204;10.424;2023-02-01T08:07:03;25.27;;;3.35;;
17965;SDS011;9108;53.204;10.424;2023-02-01T08:09:37;28.88;;;3.53;;
17965;SDS011;9108;53.204;10.424;2023-02-01T08:12:07;27.02;;;3.50;;
17965;SDS011;9108;53.204;10.424;2023-02-01T08:14:37;25.05;;;3.63;;
17965;SDS011;9108;53.204;10.424;2023-02-01T08:17:06;30.77;;;3.78;;
17965;SDS011;9108;53.204;10.424;2023-02-01T08:19:37;30.10;;;3.60;;
17965;SDS011;9108;53.204;10.424;2023-02-01T08:22:06;27.07;;;3.63;;
17965;SDS011;9108;53.204;10.424;2023-02-01T08:24:44;19.23;;;2.88;;
17965;SDS011;9108;53.204;10.424;2023-02-01T08:30:31;17.48;;;2.85;;
17965;SDS011;9108;53.204;10.424;2023-02-01T08:32:58;22.00;;;3.05;;
17965;SDS011;9108;53.204;10.424;2023-02-01T08:35:27;19.75;;;2.95;;
17965;SDS011;9108;53.204;10.424;2023-02-01T08:37:56;19.20;;;2.90;;
17965;SDS011;9108;53.204;10.424;2023-02-01T08:40:23;20.25;;;2.85;;
17965;SDS011;9108;53.204;10.424;2023-02-01T08:42:50;18.33;;;2.67;;
17965;SDS011;9108;53.204;10.424;2023-02-01T08:45:18;22.98;;;2.88;;
17965;SDS011;9108;53.204;10.424;2023-02-01T08:47:45;21.35;;;3.17;;
17965;SDS011;9108;53.204;10.424;2023-02-01T08:50:13;21.17;;;3.33;;
17965;SDS011;9108;53.204;10.424;2023-02-01T08:52:40;20.15;;;3.00;;
17965;SDS011;9108;53.204;10.424;2023-02-01T08:55:09;21.33;;;3.60;;
17965;SDS011;9108;53.204;10.424;2023-02-01T08:57:36;28.63;;;4.05;;
17965;SDS011;9108;53.204;10.424;2023-02-01T09:00:04;28.08;;;3.70;;
17965;SDS011;9108;53.204;10.424;2023-02-01T09:02:35;24.15;;;3.80;;
17965;SDS011;9108;53.204;10.424;2023-02-01T09:05:07;28.95;;;3.90;;
17965;SDS011;9108;53.204;10.424;2023-02-01T09:07:35;22.85;;;3.47;;
17965;SDS011;9108;53.204;10.424;2023-02-01T09:10:03;25.88;;;3.33;;
17965;SDS011;9108;53.204;10.424;2023-02-01T09:12:32;23.10;;;3.53;;
17965;SDS011;9108;53.204;10.424;2023-02-01T09:14:59;25.33;;;3.63;;
17965;SDS011;9108;53.204;10.424;2023-02-01T09:17:27;26.65;;;3.67;;
17965;SDS011;9108;53.204;10.424;2023-02-01T09:19:54;32.75;;;4.00;;
17965;SDS011;9108;53.204;10.424;2023-02-01T09:25:25;27.95;;;4.00;;
17965;SDS011;9108;53.204;10.424;2023-02-01T09:27:54;32.60;;;4.57;;
17965;SDS011;9108;53.204;10.424;2023-02-01T09:30:21;28.05;;;3.80;;
17965;SDS011;9108;53.204;10.424;2023-02-01T09:42:05;25.27;;;4.10;;
17965;SDS011;9108;53.204;10.424;2023-02-01T09:47:45;23.60;;;3.17;;
17965;SDS011;9108;53.204;10.424;2023-02-01T09:50:28;23.45;;;3.78;;
17965;SDS011;9108;53.204;10.424;2023-02-01T09:52:59;19.98;;;3.53;;
17965;SDS011;9108;53.204;10.424;2023-02-01T09:55:30;19.80;;;3.15;;
17965;SDS011;9108;53.204;10.424;2023-02-01T09:58:00;21.27;;;2.90;;
17965;SDS011;9108;53.204;10.424;2023-02-01T10:00:30;21.30;;;3.05;;
17965;SDS011;9108;53.204;10.424;2023-02-01T10:02:59;21.17;;;3.45;;
17965;SDS011;9108;53.204;10.424;2023-02-01T10:05:32;23.92;;;3.35;;
17965;SDS011;9108;53.204;10.424;2023-02-01T10:08:04;24.92;;;3.65;;
17965;SDS011;9108;53.204;10.424;2023-02-01T10:10:38;25.93;;;3.80;;
17965;SDS011;9108;53.204;10.424;2023-02-01T10:13:09;29.63;;;3.80;;
17965;SDS011;9108;53.204;10.424;2023-02-01T10:15:42;26.10;;;3.65;;
17965;SDS011;9108;53.204;10.424;2023-02-01T10:18:15;27.17;;;3.97;;
17965;SDS011;9108;53.204;10.424;2023-02-01T10:20:52;33.33;;;3.95;;
17965;SDS011;9108;53.204;10.424;2023-02-01T10:23:29;26.90;;;3.80;;
17965;SDS011;9108;53.204;10.424;2023-02-01T10:25:59;26.73;;;3.92;;
17965;SDS011;9108;53.204;10.424;2023-02-01T10:28:34;26.98;;;3.65;;
17965;SDS011;9108;53.204;10.424;2023-02-01T10:31:06;26.40;;;3.65;;
17965;SDS011;9108;53.204;10.424;2023-02-01T10:33:39;30.20;;;3.83;;
17965;SDS011;9108;53.204;10.424;2023-02-01T10:36:10;31.77;;;4.30;;
17965;SDS011;9108;53.204;10.424;2023-02-01T10:38:42;30.60;;;3.80;;
17965;SDS011;9108;53.204;10.424;2023-02-01T10:41:11;25.13;;;3.90;;
17965;SDS011;9108;53.204;10.424;2023-02-01T10:43:39;25.65;;;3.88;;
17965;SDS011;9108;53.204;10.424;2023-02-01T10:46:06;34.25;;;4.43;;
17965;SDS011;9108;53.204;10.424;2023-02-01T10:48:34;25.10;;;3.90;;
17965;SDS011;9108;53.204;10.424;2023-02-01T10:51:10;23.92;;;3.65;;
17965;SDS011;9108;53.204;10.424;2023-02-01T10:53:41;23.70;;;3.70;;
17965;SDS011;9108;53.204;10.424;2023-02-01T10:56:12;22.13;;;3.40;;
17965;SDS011;9108;53.204;10.424;2023-02-01T10:58:43;26.45;;;3.80;;
17965;SDS011;9108;53.204;10.424;2023-02-01T11:01:15;24.65;;;3.63;;
17965;SDS011;9108;53.204;10.424;2023-02-01T11:03:44;23.67;;;3.42;;
17965;SDS011;9108;53.204;10.424;2023-02-01T11:06:16;26.33;;;3.67;;
17965;SDS011;9108;53.204;10.424;2023-02-01T11:08:45;26.40;;;4.07;;
17965;SDS011;9108;53.204;10.424;2023-02-01T11:13:56;21.13;;;3.95;;
17965;SDS011;9108;53.204;10.424;2023-02-01T11:16:38;28.13;;;3.95;;
17965;SDS011;9108;53.204;10.424;2023-02-01T11:19:06;28.65;;;3.78;;
17965;SDS011;9108;53.204;10.424;2023-02-01T11:21:34;25.60;;;3.83;;
17965;SDS011;9108;53.204;10.424;2023-02-01T11:24:02;26.30;;;4.25;;
17965;SDS011;9108;53.204;10.424;2023-02-01T11:26:30;25.20;;;4.37;;
17965;SDS011;9108;53.204;10.424;2023-02-01T11:28:59;24.73;;;3.80;;
17965;SDS011;9108;53.204;10.424;2023-02-01T11:31:28;22.85;;;3.55;;
17965;SDS011;9108;53.204;10.424;2023-02-01T11:33:57;26.25;;;3.70;;
17965;SDS011;9108;53.204;10.424;2023-02-01T11:36:26;26.75;;;3.30;;
17965;SDS011;9108;53.204;10.424;2023-02-01T11:39:07;24.63;;;3.80;;
17965;SDS011;9108;53.204;10.424;2023-02-01T11:41:35;24.10;;;3.47;;
17965;SDS011;9108;53.204;10.424;2023-02-01T11:44:15;24.25;;;3.63;;
17965;SDS011;9108;53.204;10.424;2023-02-01T11:59:11;23.10;;;3.35;;
17965;SDS011;9108;53.204;10.424;2023-02-01T12:01:46;21.42;;;3.35;;
17965;SDS011;9108;53.204;10.424;2023-02-01T12:04:27;24.02;;;3.40;;
17965;SDS011;9108;53.204;10.424;2023-02-01T12:06:57;28.25;;;3.72;;
17965;SDS011;9108;53.204;10.424;2023-02-01T12:09:31;21.40;;;3.00;;
17965;SDS011;9108;53.204;10.424;2023-02-01T12:12:02;22.35;;;3.30;;
17965;SDS011;9108;53.204;10.424;2023-02-01T12:14:46;16.13;;;2.95;;
17965;SDS011;9108;53.204;10.424;2023-02-01T12:17:26;20.88;;;3.30;;
17965;SDS011;9108;53.204;10.424;2023-02-01T12:20:06;19.33;;;3.35;;
17965;SDS011;9108;53.204;10.424;2023-02-01T12:22:43;16.23;;;2.60;;
17965;SDS011;9108;53.204;10.424;2023-02-01T12:25:20;13.55;;;1.80;;
17965;SDS011;9108;53.204;10.424;2023-02-01T12:27:58;6.77;;;1.37;;
17965;SDS011;9108;53.204;10.424;2023-02-01T12:30:42;7.05;;;1.20;;
17965;SDS011;9108;53.204;10.424;2023-02-01T12:33:15;7.53;;;1.42;;
17965;SDS011;9108;53.204;10.424;2023-02-01T12:35:54;7.18;;;1.20;;
17965;SDS011;9108;53.204;10.424;2023-02-01T12:38:29;8.50;;;1.60;;
17965;SDS011;9108;53.204;10.424;2023-02-01T12:41:02;7.78;;;1.52;;
17965;SDS011;9108;53.204;10.424;2023-02-01T12:50:05;7.25;;;1.65;;
17965;SDS011;9108;53.204;10.424;2023-02-01T12:53:01;7.40;;;1.80;;
17965;SDS011;9108;53.204;10.424;2023-02-01T12:58:48;7.93;;;1.63;;
17965;SDS011;9108;53.204;10.424;2023-02-01T13:01:26;6.13;;;1.17;;
17965;SDS011;9108;53.204;10.424;2023-02-01T13:03:57;6.78;;;1.30;;
17965;SDS011;9108;53.204;10.424;2023-02-01T13:06:28;4.82;;;1.10;;
17965;SDS011;9108;53.204;10.424;2023-02-01T13:19:51;3.60;;;0.70;;
17965;SDS011;9108;53.204;10.424;2023-02-01T13:22:28;3.45;;;0.70;;
17965;SDS011;9108;53.204;10.424;2023-02-01T13:24:56;1.67;;;0.80;;
17965;SDS011;9108;53.204;10.424;2023-02-01T13:27:26;2.13;;;0.80;;
17965;SDS011;9108;53.204;10.424;2023-02-01T13:29:56;3.15;;;1.73;;
17965;SDS011;9108;53.204;10.424;2023-02-01T13:32:30;3.35;;;1.10;;
17965;SDS011;9108;53.204;10.424;2023-02-01T13:35:03;5.13;;;3.42;;
17965;SDS011;9108;53.204;10.424;2023-02-01T13:37:51;3.33;;;2.03;;
17965;SDS011;9108;53.204;10.424;2023-02-01T13:40:29;2.17;;;1.88;;
17965;SDS011;9108;53.204;10.424;2023-02-01T13:42:59;2.47;;;1.35;;
17965;SDS011;9108;53.204;10.424;2023-02-01T13:45:27;4.20;;;2.80;;
17965;SDS011;9108;53.204;10.424;2023-02-01T13:47:57;2.38;;;1.30;;
17965;SDS011;9108;53.204;10.424;2023-02-01T13:50:26;1.08;;;0.77;;
17965;SDS011;9108;53.204;10.424;2023-02-01T13:52:56;0.77;;;0.40;;
17965;SDS011;9108;53.204;10.424;2023-02-01T13:55:29;0.70;;;0.30;;
17965;SDS011;9108;53.204;10.424;2023-02-01T14:03:52;0.60;;;0.30;;
17965;SDS011;9108;53.204;10.424;2023-02-01T14:06:36;0.77;;;0.40;;
17965;SDS011;9108;53.204;10.424;2023-02-01T14:11:52;2.90;;;2.30;;
17965;SDS011;9108;53.204;10.424;2023-02-01T14:22:47;5.87;;;3.60;;
17965;SDS011;9108;53.204;10.424;2023-02-01T14:25:15;5.20;;;1.15;;
17965;SDS011;9108;53.204;10.424;2023-02-01T14:27:45;39.67;;;22.98;;
17965;SDS011;9108;53.204;10.424;2023-02-01T14:30:14;35.43;;;18.17;;
17965;SDS011;9108;53.204;10.424;2023-02-01T14:32:42;14.32;;;7.43;;
17965;SDS011;9108;53.204;10.424;2023-02-01T14:35:16;16.13;;;9.05;;
17965;SDS011;9108;53.204;10.424;2023-02-01T14:37:44;6.00;;;3.13;;
17965;SDS011;9108;53.204;10.424;2023-02-01T14:40:15;10.77;;;5.17;;
17965;SDS011;9108;53.204;10.424;2023-02-01T14:42:45;10.95;;;7.40;;
17965;SDS011;9108;53.204;10.424;2023-02-01T14:50:42;7.60;;;2.45;;
17965;SDS011;9108;53.204;10.424;2023-02-01T14:53:17;10.43;;;3.72;;
17965;SDS011;9108;53.204;10.424;2023-02-01T14:55:46;8.20;;;2.07;;
17965;SDS011;9108;53.204;10.424;2023-02-01T14:58:18;7.90;;;1.70;;
17965;SDS011;9108;53.204;10.424;2023-02-01T15:00:50;6.20;;;1.20;;
17965;SDS011;9108;53.204;10.424;2023-02-01T15:06:13;13.93;;;1.42;;
17965;SDS011;9108;53.204;10.424;2023-02-01T15:08:43;10.57;;;1.20;;
17965;SDS011;9108;53.204;10.424;2023-02-01T15:11:14;10.25;;;1.33;;
17965;SDS011;9108;53.204;10.424;2023-02-01T15:13:49;9.55;;;1.40;;
17965;SDS011;9108;53.204;10.424;2023-02-01T15:16:18;9.30;;;1.48;;
17965;SDS011;9108;53.204;10.424;2023-02-01T15:18:47;8.27;;;1.42;;
17965;SDS011;9108;53.204;10.424;2023-02-01T15:21:15;7.05;;;1.33;;
17965;SDS011;9108;53.204;10.424;2023-02-01T15:23:43;5.05;;;1.10;;
17965;SDS011;9108;53.204;10.424;2023-02-01T15:26:23;5.15;;;1.35;;
17965;SDS011;9108;53.204;10.424;2023-02-01T15:28:52;8.50;;;1.77;;
17965;SDS011;9108;53.204;10.424;2023-02-01T15:31:31;7.97;;;1.80;;
17965;SDS011;9108;53.204;10.424;2023-02-01T15:33:58;9.35;;;1.70;;
17965;SDS011;9108;53.204;10.424;2023-02-01T15:36:31;11.40;;;2.00;;
17965;SDS011;9108;53.204;10.424;2023-02-01T15:39:13;16.27;;;2.30;;
17965;SDS011;9108;53.204;10.424;2023-02-01T15:41:43;10.88;;;2.35;;
17965;SDS011;9108;53.204;10.424;2023-02-01T15:44:15;11.30;;;1.90;;
17965;SDS011;9108;53.204;10.424;2023-02-01T15:46:44;11.95;;;2.15;;
17965;SDS011;9108;53.204;10.424;2023-02-01T15:49:19;15.80;;;2.50;;
17965;SDS011;9108;53.204;10.424;2023-02-01T15:51:47;16.70;;;2.20;;
17965;SDS011;9108;53.204;10.424;2023-02-01T15:54:16;11.50;;;1.60;;
17965;SDS011;9108;53.204;10.424;2023-02-01T15:56:46;13.93;;;2.20;;
17965;SDS011;9108;53.204;10.424;2023-02-01T15:59:20;16.80;;;1.70;;
17965;SDS011;9108;53.204;10.424;2023-02-01T16:01:48;13.68;;;1.55;;
17965;SDS011;9108;53.204;10.424;2023-02-01T16:04:17;11.00;;;1.50;;
17965;SDS011;9108;53.204;10.424;2023-02-01T16:06:45;15.02;;;1.90;;
17965;SDS011;9108;53.204;10.424;2023-02-01T16:09:13;15.10;;;1.80;;
17965;SDS011;9108;53.204;10.424;2023-02-01T16:11:42;16.42;;;1.83;;
17965;SDS011;9108;53.204;10.424;2023-02-01T16:14:13;12.82;;;1.70;;
17965;SDS011;9108;53.204;10.424;2023-02-01T16:16:42;15.98;;;2.00;;
17965;SDS011;9108;53.204;10.424;2023-02-01T16:19:10;14.15;;;1.70;;
17965;SDS011;9108;53.204;10.424;2023-02-01T16:21:37;15.32;;;2.13;;
17965;SDS011;9108;53.204;10.424;2023-02-01T16:24:04;14.57;;;1.80;;
17965;SDS011;9108;53.204;10.424;2023-02-01T16:26:32;19.50;;;2.60;;
17965;SDS011;9108;53.204;10.424;2023-02-01T16:28:59;17.05;;;2.20;;
17965;SDS011;9108;53.204;10.424;2023-02-01T16:31:31;13.27;;;2.00;;
17965;SDS011;9108;53.204;10.424;2023-02-01T16:34:00;22.00;;;2.88;;
17965;SDS011;9108;53.204;10.424;2023-02-01T16:36:28;19.45;;;2.08;;